Other Surface Observations
Issued by NWS Great Falls, MT

Home | Current Version | Previous Version | Text Only | Print | Product List | Glossary On
Versions: 1 2 3 4 5 6 7 8 9 10 11 12 13 14 15 16 17 18 19 20 21 22 23 24 25 26 27 28 29 30 31 32 33 34 35 36 37 38 39 40 41 42 43 44 45 46 47 48 49 50
000
SXUS55 KTFX 271414
OSOTFX
AREA AWOS OBSERVATIONS
NATIONAL WEATHER SERVICE GREAT FALLS MT
0814 AM MDT SAT MAY 27 2017

METAR KPWD 271415Z AUTO 28008KT 10SM 13/06 A2986 RMK PLENTYWOOD
METAR KPO1 271415Z AUTO 25013KT 10SM 13/04 A2989 RMK POPLAR
METAR K1S3 271415Z AUTO 25005KT 10SM 13/04 A3000 RMK FORSYTH
METAR KS71 271415Z AUTO 25011KT 10SM 14/03 A2995 RMK CHINOOK
METAR K79S 271415Z AUTO 00000KT 10SM 14/05 A3004 RMK FORT BENTON
METAR K38S 271415Z AUTO 00000KT 10SM 11/03 A3020 RMK DEER LODGE
METAR K3U3 271415Z AUTO 26010G15KT 10SM 13/02 A3016 RMK ANACONDA
METAR K6S5 271415Z AUTO 17005KT 10SM 11/03 A3017 RMK HAMILTON
METAR K88M 271415Z AUTO 00000KT 10SM 12/04 RMK EUREKA



USA.gov is the U.S. government's official web portal to all federal, state and local government web resources and services.